Georgis Nikolos — SXPX — position and weather

sailwx.info

Track history (hours):
 
Tides and Currents Weather Stations Pressure Air Temp Water Temp Dewpoint Dewpoint Depression Visibility Wind Speed Wind Dir Waves Ship Positions

Georgis Nikolos

Last reported at 2017-Sep-20 10:49 UTC. Time now 2017-Sep-22 22:28 UTC.
Position N 36°20' E 014°43'.

Length 228 m; draft 14 m.

Type: Ship. MMSI: 240061000.

Date/timePositionNaut miles runAvg speedWind from/ knotsBaromVisibWave heightAir tempDewpointWater temp
2017-Sep-20 10:49N 36°20' E 014°43'411.4
2017-Sep-20 10:29N 36°21' E 014°38'511.6
2017-Sep-20 10:00N 36°23' E 014°32'611.9
2017-Sep-20 09:30N 36°24' E 014°24'611.9
2017-Sep-20 09:00N 36°26' E 014°17'611.9
2017-Sep-20 08:30N 36°27' E 014°10'711.9
2017-Sep-20 07:54N 36°29' E 014°02'711.8
2017-Sep-20 07:16N 36°31' E 013°53'411.5
2017-Sep-20 06:53N 36°33' E 013°48'  
2017-Sep-17 23:55N 36°46' E 000°49'29412.2
2017-Sep-16 23:51N 36°01' W 005°12'514.0
2017-Sep-16 23:30N 36°01' W 005°18'510.6
2017-Sep-16 23:00N 36°04' W 005°24'1 1.6
2017-Sep-16 22:25N 36°05' W 005°24'0 0.1
2017-Sep-16 21:55N 36°05' W 005°24'0 0.2
2017-Sep-16 21:25N 36°05' W 005°24'0 0.2
2017-Sep-16 20:58N 36°05' W 005°24'0 0.0
2017-Sep-16 19:40N 36°05' W 005°24'0 0.2
2017-Sep-16 19:28N 36°05' W 005°24'0 0.1
2017-Sep-16 18:58N 36°05' W 005°24'0 0.2
2017-Sep-16 18:25N 36°05' W 005°24'0 0.0
2017-Sep-16 17:55N 36°05' W 005°24'0 0.1
2017-Sep-16 17:28N 36°05' W 005°24'0 0.1
2017-Sep-16 16:58N 36°05' W 005°24'0 0.1
2017-Sep-16 16:28N 36°05' W 005°24'0 0.1
2017-Sep-16 15:58N 36°05' W 005°24'0 0.2
2017-Sep-16 15:28N 36°05' W 005°24'0 0.1
2017-Sep-16 12:58N 36°05' W 005°24'0 0.3
2017-Sep-16 12:28N 36°05' W 005°24'0 0.1
2017-Sep-16 10:28N 36°05' W 005°24'0 0.0
2017-Sep-16 09:13N 36°05' W 005°24'0 0.0
2017-Sep-16 08:58N 36°05' W 005°24'0 0.1
2017-Sep-16 07:40N 36°05' W 005°24'0 0.1
2017-Sep-16 07:28N 36°05' W 005°24'0 0.1
2017-Sep-16 06:58N 36°05' W 005°24'0 0.0
2017-Sep-16 04:43N 36°05' W 005°24'0 0.0
2017-Sep-16 04:19N 36°05' W 005°24'0 0.0
2017-Sep-16 03:37N 36°05' W 005°24'0 0.1
2017-Sep-16 03:28N 36°05' W 005°24'0 0.0
2017-Sep-16 02:58N 36°05' W 005°24'0 0.0
2017-Sep-16 02:28N 36°05' W 005°24'0 0.0
2017-Sep-16 01:58N 36°05' W 005°24'0 0.1
2017-Sep-16 01:28N 36°05' W 005°24'0 0.3
2017-Sep-16 00:55N 36°05' W 005°24'1 2.6
2017-Sep-16 00:30N 36°04' W 005°23'4 8.3
2017-Sep-16 00:00N 36°00' W 005°24'612.5
2017-Sep-15 23:30N 35°57' W 005°31'10311.3
2017-Sep-15 14:24N 36°04' W 007°38'810.9
2017-Sep-15 13:38N 36°05' W 007°48'210.9
2017-Sep-15 13:29N 36°06' W 007°50'2411.1
2017-Sep-15 11:21N 36°09' W 008°19'410.7
2017-Sep-15 10:59N 36°09' W 008°24'510.6
2017-Sep-15 10:30N 36°10' W 008°30'810.5
2017-Sep-15 09:47N 36°11' W 008°40'410.6
2017-Sep-15 09:25N 36°12' W 008°44'810.5
2017-Sep-15 08:38N 36°13' W 008°55'110.6
2017-Sep-15 08:30N 36°13' W 008°56'510.4
2017-Sep-15 08:00N 36°14' W 009°03'510.3
2017-Sep-15 07:30N 36°15' W 009°09'510.5
2017-Sep-15 07:00N 36°16' W 009°15'510.5
2017-Sep-15 06:30N 36°17' W 009°22'510.3
2017-Sep-15 06:00N 36°18' W 009°28'710.2
2017-Sep-15 05:17N 36°19' W 009°37'4510.3
2017-Sep-15 00:53N 36°27' W 010°32'1610.4
2017-Sep-14 23:20N 36°31' W 010°52'410.7
2017-Sep-14 22:59N 36°31' W 010°56'710.8
2017-Sep-14 22:18N 36°33' W 011°05'410.9
2017-Sep-14 21:55N 36°34' W 011°11'410.7
2017-Sep-14 21:30N 36°35' W 011°16'510.6
2017-Sep-14 21:00N 36°35' W 011°22'510.6
2017-Sep-14 20:30N 36°36' W 011°29'611.1
2017-Sep-14 20:00N 36°37' W 011°36'  
2017-Sep-12 15:18N 37°25' W 023°38'311.0
2017-Sep-12 15:00N 37°25' W 023°43'511.1
2017-Sep-12 14:30N 37°25' W 023°49'611.3
2017-Sep-12 14:00N 37°26' W 023°56'611.3
2017-Sep-12 13:30N 37°26' W 024°04'611.3
2017-Sep-12 13:01N 37°26' W 024°11'611.6
2017-Sep-12 12:31N 37°26' W 024°18'611.6
2017-Sep-12 12:00N 37°26' W 024°25'611.1
2017-Sep-12 11:30N 37°26' W 024°32'510.6
2017-Sep-12 11:01N 37°26' W 024°39'510.9
2017-Sep-12 10:31N 37°27' W 024°46'611.0
2017-Sep-12 10:00N 37°27' W 024°53'611.4
2017-Sep-12 09:31N 37°27' W 024°60'611.3
2017-Sep-12 09:01N 37°27' W 025°07'611.4
2017-Sep-12 08:31N 37°27' W 025°14'611.4
2017-Sep-12 08:01N 37°27' W 025°21'611.1
2017-Sep-12 07:31N 37°27' W 025°28'611.3
2017-Sep-12 07:01N 37°27' W 025°35'611.8
2017-Sep-12 06:31N 37°27' W 025°43'611.5
2017-Sep-12 06:00N 37°27' W 025°50'611.7
2017-Sep-12 05:31N 37°26' W 025°57'611.8
2017-Sep-12 05:00N 37°26' W 026°05'611.5
2017-Sep-12 04:31N 37°26' W 026°12'611.3
2017-Sep-12 04:00N 37°26' W 026°19'611.2
2017-Sep-12 03:30N 37°26' W 026°26'611.3
2017-Sep-12 03:01N 37°26' W 026°33'510.9
2017-Sep-12 02:31N 37°26' W 026°40'611.3
2017-Sep-12 02:01N 37°25' W 026°47'611.7
2017-Sep-12 01:30N 37°25' W 026°55'611.3
2017-Sep-12 01:01N 37°25' W 027°02'611.3
2017-Sep-12 00:30N 37°25' W 027°09'1111.4
2017-Sep-11 23:34N 37°25' W 027°22'111.4
2017-Sep-11 23:30N 37°25' W 027°23'610.9
2017-Sep-11 22:56N 37°25' W 027°31'611.5
2017-Sep-11 22:26N 37°25' W 027°38'511.7
2017-Sep-11 22:00N 37°25' W 027°45'611.4
2017-Sep-11 21:29N 37°25' W 027°52'511.3
2017-Sep-11 21:01N 37°25' W 027°59'611.5
2017-Sep-11 20:31N 37°25' W 028°06'611.7
2017-Sep-11 20:00N 37°25' W 028°14'611.9
2017-Sep-11 19:30N 37°25' W 028°21'611.7
2017-Sep-11 19:00N 37°24' W 028°28'611.3
2017-Sep-11 18:30N 37°24' W 028°36'611.2
2017-Sep-11 18:01N 37°24' W 028°43'611.6
2017-Sep-11 17:30N 37°24' W 028°50'611.5
2017-Sep-11 17:01N 37°24' W 028°57'611.0
2017-Sep-11 16:30N 37°24' W 029°04'510.9
2017-Sep-11 16:00N 37°24' W 029°11'511.1
2017-Sep-11 15:30N 37°24' W 029°18'611.2
2017-Sep-11 15:00N 37°23' W 029°25'511.1
2017-Sep-11 14:30N 37°23' W 029°32'610.9
2017-Sep-11 14:00N 37°23' W 029°39'511.0
2017-Sep-11 13:31N 37°23' W 029°46'1111.2
2017-Sep-11 12:30N 37°23' W 029°60'  
Track history (hours):
 
Tides and Currents Weather Stations Pressure Air Temp Water Temp Dewpoint Dewpoint Depression Visibility Wind Speed Wind Dir Waves Ship Positions

Georgis Nikolos

Last reported at 2017-Sep-20 10:49 UTC. Time now 2017-Sep-22 22:28 UTC.
Position N 36°20' E 014°43'.

Length 228 m; draft 14 m.

Type: Ship. MMSI: 240061000.

Date/timePositionNaut miles runAvg speedWind from/ knotsBaromVisibWave heightAir tempDewpointWater temp
2017-Sep-20 10:49N 36°20' E 014°43'411.4
2017-Sep-20 10:29N 36°21' E 014°38'511.6
2017-Sep-20 10:00N 36°23' E 014°32'611.9
2017-Sep-20 09:30N 36°24' E 014°24'611.9
2017-Sep-20 09:00N 36°26' E 014°17'611.9
2017-Sep-20 08:30N 36°27' E 014°10'711.9
2017-Sep-20 07:54N 36°29' E 014°02'711.8
2017-Sep-20 07:16N 36°31' E 013°53'411.5
2017-Sep-20 06:53N 36°33' E 013°48'  
2017-Sep-17 23:55N 36°46' E 000°49'29412.2
2017-Sep-16 23:51N 36°01' W 005°12'514.0
2017-Sep-16 23:30N 36°01' W 005°18'510.6
2017-Sep-16 23:00N 36°04' W 005°24'1 1.6
2017-Sep-16 22:25N 36°05' W 005°24'0 0.1
2017-Sep-16 21:55N 36°05' W 005°24'0 0.2
2017-Sep-16 21:25N 36°05' W 005°24'0 0.2
2017-Sep-16 20:58N 36°05' W 005°24'0 0.0
2017-Sep-16 19:40N 36°05' W 005°24'0 0.2
2017-Sep-16 19:28N 36°05' W 005°24'0 0.1
2017-Sep-16 18:58N 36°05' W 005°24'0 0.2
2017-Sep-16 18:25N 36°05' W 005°24'0 0.0
2017-Sep-16 17:55N 36°05' W 005°24'0 0.1
2017-Sep-16 17:28N 36°05' W 005°24'0 0.1
2017-Sep-16 16:58N 36°05' W 005°24'0 0.1
2017-Sep-16 16:28N 36°05' W 005°24'0 0.1
2017-Sep-16 15:58N 36°05' W 005°24'0 0.2
2017-Sep-16 15:28N 36°05' W 005°24'0 0.1
2017-Sep-16 12:58N 36°05' W 005°24'0 0.3
2017-Sep-16 12:28N 36°05' W 005°24'0 0.1
2017-Sep-16 10:28N 36°05' W 005°24'0 0.0
2017-Sep-16 09:13N 36°05' W 005°24'0 0.0
2017-Sep-16 08:58N 36°05' W 005°24'0 0.1
2017-Sep-16 07:40N 36°05' W 005°24'0 0.1
2017-Sep-16 07:28N 36°05' W 005°24'0 0.1
2017-Sep-16 06:58N 36°05' W 005°24'0 0.0
2017-Sep-16 04:43N 36°05' W 005°24'0 0.0
2017-Sep-16 04:19N 36°05' W 005°24'0 0.0
2017-Sep-16 03:37N 36°05' W 005°24'0 0.1
2017-Sep-16 03:28N 36°05' W 005°24'0 0.0
2017-Sep-16 02:58N 36°05' W 005°24'0 0.0
2017-Sep-16 02:28N 36°05' W 005°24'0 0.0
2017-Sep-16 01:58N 36°05' W 005°24'0 0.1
2017-Sep-16 01:28N 36°05' W 005°24'0 0.3
2017-Sep-16 00:55N 36°05' W 005°24'1 2.6
2017-Sep-16 00:30N 36°04' W 005°23'4 8.3
2017-Sep-16 00:00N 36°00' W 005°24'612.5
2017-Sep-15 23:30N 35°57' W 005°31'10311.3
2017-Sep-15 14:24N 36°04' W 007°38'810.9
2017-Sep-15 13:38N 36°05' W 007°48'210.9
2017-Sep-15 13:29N 36°06' W 007°50'2411.1
2017-Sep-15 11:21N 36°09' W 008°19'410.7
2017-Sep-15 10:59N 36°09' W 008°24'510.6
2017-Sep-15 10:30N 36°10' W 008°30'810.5
2017-Sep-15 09:47N 36°11' W 008°40'410.6
2017-Sep-15 09:25N 36°12' W 008°44'810.5
2017-Sep-15 08:38N 36°13' W 008°55'110.6
2017-Sep-15 08:30N 36°13' W 008°56'510.4
2017-Sep-15 08:00N 36°14' W 009°03'510.3
2017-Sep-15 07:30N 36°15' W 009°09'510.5
2017-Sep-15 07:00N 36°16' W 009°15'510.5
2017-Sep-15 06:30N 36°17' W 009°22'510.3
2017-Sep-15 06:00N 36°18' W 009°28'710.2
2017-Sep-15 05:17N 36°19' W 009°37'4510.3
2017-Sep-15 00:53N 36°27' W 010°32'1610.4
2017-Sep-14 23:20N 36°31' W 010°52'410.7
2017-Sep-14 22:59N 36°31' W 010°56'710.8
2017-Sep-14 22:18N 36°33' W 011°05'410.9
2017-Sep-14 21:55N 36°34' W 011°11'410.7
2017-Sep-14 21:30N 36°35' W 011°16'510.6
2017-Sep-14 21:00N 36°35' W 011°22'510.6
2017-Sep-14 20:30N 36°36' W 011°29'611.1
2017-Sep-14 20:00N 36°37' W 011°36'  
2017-Sep-12 15:18N 37°25' W 023°38'311.0
2017-Sep-12 15:00N 37°25' W 023°43'511.1
2017-Sep-12 14:30N 37°25' W 023°49'611.3
2017-Sep-12 14:00N 37°26' W 023°56'611.3
2017-Sep-12 13:30N 37°26' W 024°04'611.3
2017-Sep-12 13:01N 37°26' W 024°11'611.6
2017-Sep-12 12:31N 37°26' W 024°18'611.6
2017-Sep-12 12:00N 37°26' W 024°25'611.1
2017-Sep-12 11:30N 37°26' W 024°32'510.6
2017-Sep-12 11:01N 37°26' W 024°39'510.9
2017-Sep-12 10:31N 37°27' W 024°46'611.0
2017-Sep-12 10:00N 37°27' W 024°53'611.4
2017-Sep-12 09:31N 37°27' W 024°60'611.3
2017-Sep-12 09:01N 37°27' W 025°07'611.4
2017-Sep-12 08:31N 37°27' W 025°14'611.4
2017-Sep-12 08:01N 37°27' W 025°21'611.1
2017-Sep-12 07:31N 37°27' W 025°28'611.3
2017-Sep-12 07:01N 37°27' W 025°35'611.8
2017-Sep-12 06:31N 37°27' W 025°43'611.5
2017-Sep-12 06:00N 37°27' W 025°50'611.7
2017-Sep-12 05:31N 37°26' W 025°57'611.8
2017-Sep-12 05:00N 37°26' W 026°05'611.5
2017-Sep-12 04:31N 37°26' W 026°12'611.3
2017-Sep-12 04:00N 37°26' W 026°19'611.2
2017-Sep-12 03:30N 37°26' W 026°26'611.3
2017-Sep-12 03:01N 37°26' W 026°33'510.9
2017-Sep-12 02:31N 37°26' W 026°40'611.3
2017-Sep-12 02:01N 37°25' W 026°47'611.7
2017-Sep-12 01:30N 37°25' W 026°55'611.3
2017-Sep-12 01:01N 37°25' W 027°02'611.3
2017-Sep-12 00:30N 37°25' W 027°09'1111.4
2017-Sep-11 23:34N 37°25' W 027°22'111.4
2017-Sep-11 23:30N 37°25' W 027°23'610.9
2017-Sep-11 22:56N 37°25' W 027°31'611.5
2017-Sep-11 22:26N 37°25' W 027°38'511.7
2017-Sep-11 22:00N 37°25' W 027°45'611.4
2017-Sep-11 21:29N 37°25' W 027°52'511.3
2017-Sep-11 21:01N 37°25' W 027°59'611.5
2017-Sep-11 20:31N 37°25' W 028°06'611.7
2017-Sep-11 20:00N 37°25' W 028°14'611.9
2017-Sep-11 19:30N 37°25' W 028°21'611.7
2017-Sep-11 19:00N 37°24' W 028°28'611.3
2017-Sep-11 18:30N 37°24' W 028°36'611.2
2017-Sep-11 18:01N 37°24' W 028°43'611.6
2017-Sep-11 17:30N 37°24' W 028°50'611.5
2017-Sep-11 17:01N 37°24' W 028°57'611.0
2017-Sep-11 16:30N 37°24' W 029°04'510.9
2017-Sep-11 16:00N 37°24' W 029°11'511.1
2017-Sep-11 15:30N 37°24' W 029°18'611.2
2017-Sep-11 15:00N 37°23' W 029°25'511.1
2017-Sep-11 14:30N 37°23' W 029°32'610.9
2017-Sep-11 14:00N 37°23' W 029°39'511.0
2017-Sep-11 13:31N 37°23' W 029°46'1111.2
2017-Sep-11 12:30N 37°23' W 029°60'  

Dump ship's entire track history